This is the latest recevied weather packets stored in our database for station/object HS1AXC-1. If no packets are shown the sender has not sent any weather packets the latest 10 day(s).
| Time | Temp. | Humidity | Pressure | Rain* | Wind** | Luminosity | Snow |
|---|---|---|---|---|---|---|---|
| 1777513229 | 35.56° C | 76% | 1012 hPa | - | - | 1 W/m² | - |
| 1777512606 | 35° C | 78% | 1012 hPa | - | - | 1 W/m² | - |
| 1777511984 | 35° C | 80% | 1011 hPa | - | - | 1 W/m² | - |
| 1777511362 | 34.44° C | 81% | 1011 hPa | - | - | 1 W/m² | - |
| 1777510740 | 35° C | 81% | 1011 hPa | - | - | 1 W/m² | - |
| 1777507745 | 34.44° C | 85% | 1010 hPa | - | - | 0 W/m² | - |
| 1777507122 | 33.33° C | 88% | 1010 hPa | - | - | 1 W/m² | - |
| 1777506500 | 33.89° C | 89% | 1010 hPa | - | - | 0 W/m² | - |
| 1777505899 | 33.89° C | 89% | 1010 hPa | - | - | 0 W/m² | - |
| 1777504974 | 33.33° C | 90% | 1010 hPa | - | - | 0 W/m² | - |
| 1777504352 | 33.33° C | 91% | 1010 hPa | - | - | 0 W/m² | - |
| 1777503730 | 33.33° C | 91% | 1010 hPa | - | - | 0 W/m² | - |
| 1777503108 | 33.33° C | 90% | 1009 hPa | - | - | 0 W/m² | - |
| 1777502486 | 33.33° C | 91% | 1009 hPa | - | - | 0 W/m² | - |
| 1777501619 | 33.89° C | 83% | 1009 hPa | - | - | 0 W/m² | - |
| 1777500997 | 34.44° C | 82% | 1009 hPa | - | - | 0 W/m² | - |
| 1777500375 | 34.44° C | 81% | 1009 hPa | - | - | 0 W/m² | - |
| 1777499575 | 33.89° C | 82% | 1009 hPa | - | - | 0 W/m² | - |
| 1777498953 | 34.44° C | 82% | 1009 hPa | - | - | 0 W/m² | - |
| 1777498331 | 33.89° C | 82% | 1008 hPa | - | - | 0 W/m² | - |
| 1777497709 | 33.89° C | 82% | 1008 hPa | - | - | 0 W/m² | - |
| 1777497087 | 34.44° C | 80% | 1008 hPa | - | - | 0 W/m² | - |
| 1777496465 | 33.89° C | 81% | 1008 hPa | - | - | 0 W/m² | - |
| 1777495843 | 34.44° C | 79% | 1008 hPa | - | - | 0 W/m² | - |
| 1777495221 | 34.44° C | 79% | 1008 hPa | - | - | 0 W/m² | - |
* Rain since midnight (hover to see other rain measurements)
** Current wind speed in m/s (hover to see current wind gust speed)